createdAt,value
2023-03-13T00:01:24.445Z,8.82
2023-03-13T00:03:52.136Z,8.86
2023-03-13T00:06:19.945Z,8.80
2023-03-13T00:08:48.838Z,8.84
2023-03-13T00:11:16.806Z,8.84
2023-03-13T00:13:45.082Z,8.90
2023-03-13T00:16:13.608Z,8.91
2023-03-13T00:18:46.152Z,8.88
2023-03-13T00:21:13.956Z,8.89
2023-03-13T00:23:41.733Z,8.94
2023-03-13T00:26:12.184Z,8.95
2023-03-13T00:28:41.507Z,8.89
2023-03-13T00:31:10.401Z,9.00
2023-03-13T00:33:39.215Z,9.12
2023-03-13T00:36:08.510Z,9.07
2023-03-13T00:38:36.642Z,9.13
2023-03-13T00:41:06.017Z,9.16
2023-03-13T00:43:35.544Z,9.18
2023-03-13T00:46:03.313Z,9.24
2023-03-13T00:48:31.220Z,9.22
2023-03-13T00:50:58.863Z,9.25
2023-03-13T00:53:26.480Z,9.23
2023-03-13T00:55:55.597Z,9.19
2023-03-13T00:58:23.600Z,9.23
2023-03-13T01:00:53.085Z,9.25
2023-03-13T01:03:21.389Z,9.27
2023-03-13T01:05:57.620Z,9.28
2023-03-13T01:08:25.422Z,9.29
2023-03-13T01:10:59.157Z,9.26
2023-03-13T01:13:26.914Z,9.20
2023-03-13T01:15:56.076Z,9.17
2023-03-13T01:18:23.855Z,9.23
2023-03-13T01:20:51.387Z,9.24
2023-03-13T01:23:18.952Z,9.20
2023-03-13T01:25:46.527Z,9.25
2023-03-13T01:28:14.243Z,9.22
2023-03-13T01:30:41.894Z,9.14
2023-03-13T01:33:10.818Z,9.20
2023-03-13T01:35:38.568Z,9.26
2023-03-13T01:38:06.173Z,9.26
2023-03-13T01:40:40.392Z,9.24
2023-03-13T01:43:26.160Z,9.18
2023-03-13T01:45:58.453Z,9.27
2023-03-13T01:48:31.718Z,9.31
2023-03-13T01:51:01.188Z,9.34
2023-03-13T01:53:30.172Z,9.33
2023-03-13T01:55:58.505Z,9.41
2023-03-13T01:58:26.558Z,9.34
2023-03-13T02:00:54.129Z,9.42
2023-03-13T02:03:22.373Z,9.44
2023-03-13T02:05:52.084Z,9.53
2023-03-13T02:08:22.630Z,9.46
2023-03-13T02:10:52.775Z,9.46
2023-03-13T02:13:21.489Z,9.42
2023-03-13T02:15:49.302Z,9.48
2023-03-13T02:18:17.127Z,9.53
2023-03-13T02:20:45.135Z,9.56
2023-03-13T02:23:20.841Z,9.55
2023-03-13T02:25:50.956Z,9.60
2023-03-13T02:28:20.908Z,9.54
2023-03-13T02:30:49.788Z,9.50
2023-03-13T02:33:19.394Z,9.51
2023-03-13T02:35:47.482Z,9.56
2023-03-13T02:38:20.286Z,9.58
2023-03-13T02:40:50.166Z,9.59
2023-03-13T02:43:21.345Z,9.60
2023-03-13T02:46:10.204Z,9.65
2023-03-13T02:48:39.861Z,9.60
2023-03-13T02:51:11.892Z,9.68
2023-03-13T02:53:39.428Z,9.62
2023-03-13T02:56:08.636Z,9.70
2023-03-13T02:58:49.226Z,9.76
2023-03-13T03:01:17.698Z,9.74
2023-03-13T03:03:45.341Z,9.73
2023-03-13T03:06:12.988Z,9.77
2023-03-13T03:08:41.483Z,9.73
2023-03-13T03:11:10.539Z,9.74
2023-03-13T03:13:38.443Z,9.76
2023-03-13T03:16:09.995Z,9.76
2023-03-13T03:18:38.159Z,9.82
2023-03-13T03:21:06.781Z,9.82
2023-03-13T03:23:34.730Z,9.77
2023-03-13T03:26:02.684Z,9.81
2023-03-13T03:28:31.616Z,9.81
2023-03-13T03:30:59.193Z,9.89
2023-03-13T03:33:26.719Z,9.95
2023-03-13T03:36:00.607Z,9.93
2023-03-13T03:38:28.609Z,9.90
2023-03-13T03:40:56.260Z,9.85
2023-03-13T03:43:23.905Z,9.88
2023-03-13T03:45:53.119Z,9.92
2023-03-13T03:48:20.727Z,9.89
2023-03-13T03:50:48.326Z,9.94
2023-03-13T03:53:16.184Z,9.97
2023-03-13T03:55:43.829Z,9.97
2023-03-13T03:58:11.551Z,9.93
2023-03-13T04:00:39.146Z,9.92
2023-03-13T04:03:08.129Z,9.96
2023-03-13T04:05:35.772Z,9.99
2023-03-13T04:08:03.400Z,9.85
2023-03-13T04:10:30.973Z,9.93
2023-03-13T04:12:58.591Z,9.94
2023-03-13T04:15:26.247Z,9.99
2023-03-13T04:17:53.807Z,9.97
2023-03-13T04:20:22.706Z,9.93
2023-03-13T04:22:50.285Z,9.93
2023-03-13T04:25:17.972Z,10.06
2023-03-13T04:27:45.561Z,10.01
2023-03-13T04:30:14.028Z,9.96
2023-03-13T04:32:41.866Z,10.01
2023-03-13T04:35:09.997Z,9.98
2023-03-13T04:37:38.897Z,9.91
2023-03-13T04:40:08.003Z,10.06
2023-03-13T04:42:35.596Z,10.03
2023-03-13T04:45:03.197Z,10.12
2023-03-13T04:47:30.833Z,10.08
2023-03-13T04:49:58.422Z,10.07
2023-03-13T04:52:26.084Z,10.11
2023-03-13T04:54:54.974Z,10.16
2023-03-13T04:57:22.572Z,10.11
2023-03-13T04:59:50.317Z,10.14
2023-03-13T05:02:17.941Z,10.12
2023-03-13T05:04:45.548Z,10.19
2023-03-13T05:07:13.160Z,10.22
2023-03-13T05:09:40.774Z,10.15
2023-03-13T05:12:10.369Z,10.25
2023-03-13T05:14:37.972Z,10.27
2023-03-13T05:17:05.546Z,10.32
2023-03-13T05:19:33.120Z,10.31
2023-03-13T05:22:00.677Z,10.33
2023-03-13T05:24:28.279Z,10.42
2023-03-13T05:26:55.869Z,10.32
2023-03-13T05:29:24.817Z,10.38
2023-03-13T05:31:52.367Z,10.41
2023-03-13T05:34:20.112Z,10.44
2023-03-13T05:36:47.664Z,10.51
2023-03-13T05:39:15.360Z,10.42
2023-03-13T05:41:42.888Z,10.46
2023-03-13T05:44:11.082Z,10.46
2023-03-13T05:46:40.058Z,10.43
2023-03-13T05:49:08.117Z,10.49
2023-03-13T05:51:35.701Z,10.53
2023-03-13T05:54:03.396Z,10.53
2023-03-13T05:56:31.161Z,10.53
2023-03-13T05:58:58.699Z,10.54
2023-03-13T06:01:26.349Z,10.59
2023-03-13T06:03:55.533Z,10.62
2023-03-13T06:06:23.118Z,10.53
2023-03-13T06:08:52.817Z,10.61
2023-03-13T06:11:20.403Z,10.63
2023-03-13T06:13:47.993Z,10.73
2023-03-13T06:16:15.582Z,10.70
2023-03-13T06:18:43.221Z,10.78
2023-03-13T06:21:12.145Z,10.81
2023-03-13T06:23:39.728Z,10.81
2023-03-13T06:26:07.345Z,10.87
2023-03-13T06:28:34.965Z,10.90
2023-03-13T06:31:03.103Z,10.88
2023-03-13T06:33:31.009Z,11.01
2023-03-13T06:35:59.902Z,10.98
2023-03-13T06:38:29.318Z,11.04
2023-03-13T06:40:57.071Z,10.98
2023-03-13T06:43:24.759Z,11.04
2023-03-13T06:45:52.355Z,11.14
2023-03-13T06:48:20.242Z,11.18
2023-03-13T06:50:47.762Z,11.25
2023-03-13T06:53:16.873Z,11.39
2023-03-13T06:55:46.319Z,11.37
2023-03-13T06:58:29.080Z,11.42
2023-03-13T07:00:59.278Z,11.46
2023-03-13T07:03:27.047Z,11.50
2023-03-13T07:05:57.117Z,11.53
2023-03-13T07:08:25.910Z,11.60
2023-03-13T07:10:55.471Z,11.64
2023-03-13T07:13:23.081Z,11.60
2023-03-13T07:15:51.429Z,11.59
2023-03-13T07:18:19.069Z,11.62
2023-03-13T07:20:46.658Z,11.60
2023-03-13T07:23:14.330Z,11.63
2023-03-13T07:25:41.912Z,11.65
2023-03-13T07:28:10.876Z,11.62
2023-03-13T07:30:38.459Z,11.69
2023-03-13T07:33:06.220Z,11.63
2023-03-13T07:35:33.794Z,11.64
2023-03-13T07:38:01.450Z,11.65
2023-03-13T07:40:29.058Z,11.66
2023-03-13T07:42:56.629Z,11.72
2023-03-13T07:45:25.583Z,11.68
2023-03-13T07:47:53.155Z,11.73
2023-03-13T07:50:20.964Z,11.72
2023-03-13T07:52:48.671Z,11.65
2023-03-13T07:55:16.392Z,11.65
2023-03-13T07:57:43.989Z,11.75
2023-03-13T08:00:16.466Z,11.67
2023-03-13T08:02:45.520Z,11.67
2023-03-13T08:05:13.133Z,11.63
2023-03-13T08:07:40.761Z,11.64
2023-03-13T08:10:09.140Z,11.67
2023-03-13T08:12:36.722Z,11.69
2023-03-13T08:15:04.748Z,11.69
2023-03-13T08:17:32.563Z,11.72
2023-03-13T08:20:01.535Z,11.80
2023-03-13T08:22:29.260Z,11.76
2023-03-13T08:24:56.913Z,11.80
2023-03-13T08:27:24.708Z,11.77
2023-03-13T08:29:53.070Z,11.87
2023-03-13T08:32:22.044Z,11.88
2023-03-13T08:34:49.717Z,11.86
2023-03-13T08:37:18.678Z,11.84
2023-03-13T08:39:48.594Z,11.85
2023-03-13T08:42:16.317Z,11.80
2023-03-13T08:44:44.084Z,11.83
2023-03-13T08:47:11.738Z,11.91
2023-03-13T08:49:39.507Z,11.90
2023-03-13T08:55:01.051Z,11.92
2023-03-13T08:57:28.729Z,11.81
2023-03-13T08:59:56.377Z,11.83
2023-03-13T09:02:23.959Z,11.76
2023-03-13T09:04:51.590Z,11.83
2023-03-13T09:07:19.249Z,11.83
2023-03-13T09:09:46.902Z,11.95
2023-03-13T09:12:30.105Z,12.04
2023-03-13T09:14:58.594Z,12.10
2023-03-13T09:17:27.065Z,12.15
2023-03-13T09:20:00.461Z,12.20
2023-03-13T09:22:31.144Z,12.21
2023-03-13T09:24:58.824Z,12.15
2023-03-13T09:27:28.317Z,12.16
2023-03-13T09:29:56.069Z,12.09
2023-03-13T09:32:23.777Z,12.10
2023-03-13T09:34:51.382Z,12.12
2023-03-13T09:37:19.061Z,12.21
2023-03-13T09:39:46.643Z,12.16
2023-03-13T09:42:16.694Z,12.17
2023-03-13T09:44:47.852Z,12.25
2023-03-13T09:47:20.252Z,12.19
2023-03-13T09:49:51.279Z,12.24
2023-03-13T09:52:20.633Z,12.32
2023-03-13T09:54:51.007Z,12.32
2023-03-13T09:57:26.453Z,12.29
2023-03-13T09:59:59.388Z,12.29
2023-03-13T10:02:30.950Z,12.26
2023-03-13T10:05:06.572Z,12.22
2023-03-13T10:07:34.403Z,12.27
2023-03-13T10:10:02.796Z,12.31
2023-03-13T10:12:32.202Z,12.37
2023-03-13T10:15:17.167Z,12.40
2023-03-13T10:17:45.101Z,12.45
2023-03-13T10:20:21.198Z,12.48
2023-03-13T10:22:51.127Z,12.43
2023-03-13T10:25:26.268Z,12.42
2023-03-13T10:27:55.127Z,12.50
2023-03-13T10:30:26.496Z,12.39
2023-03-13T10:33:00.610Z,12.43
2023-03-13T10:35:36.699Z,12.44
2023-03-13T10:38:07.894Z,12.48
2023-03-13T10:40:35.774Z,12.42
2023-03-13T10:43:05.798Z,12.48
2023-03-13T10:45:37.022Z,12.41
2023-03-13T10:48:12.585Z,12.43
2023-03-13T10:50:44.179Z,12.39
2023-03-13T10:53:23.854Z,12.44
2023-03-13T10:55:54.316Z,12.39
2023-03-13T10:58:25.152Z,12.40
2023-03-13T11:00:54.050Z,12.33
2023-03-13T11:03:26.689Z,12.41
2023-03-13T11:05:58.991Z,12.41
2023-03-13T11:08:28.612Z,12.46
2023-03-13T11:10:58.922Z,12.49
2023-03-13T11:13:37.130Z,12.44
2023-03-13T11:16:23.784Z,12.49
2023-03-13T11:19:16.046Z,12.54
2023-03-13T11:21:51.540Z,12.49
2023-03-13T11:24:25.220Z,12.61
2023-03-13T11:27:04.842Z,12.67
2023-03-13T11:29:39.816Z,12.68
2023-03-13T11:32:18.626Z,12.65
2023-03-13T11:34:50.668Z,12.60
2023-03-13T11:37:20.166Z,12.62
2023-03-13T11:39:54.973Z,12.68
2023-03-13T11:42:49.928Z,12.82
2023-03-13T11:45:31.059Z,12.83
2023-03-13T11:48:05.736Z,12.81
2023-03-13T11:50:45.481Z,12.81
2023-03-13T11:53:29.133Z,12.94
2023-03-13T11:56:05.084Z,12.92
2023-03-13T11:58:43.739Z,12.97
2023-03-13T12:01:13.040Z,12.94
2023-03-13T12:03:55.224Z,12.96
2023-03-13T12:06:28.714Z,13.10
2023-03-13T12:09:01.743Z,13.05
2023-03-13T12:11:32.073Z,13.10
2023-03-13T12:14:03.475Z,13.13
2023-03-13T12:16:40.657Z,13.30
2023-03-13T12:19:12.589Z,13.36
2023-03-13T12:21:45.068Z,13.40
2023-03-13T12:24:15.575Z,13.37
2023-03-13T12:26:45.754Z,13.37
2023-03-13T12:29:17.194Z,13.46
2023-03-13T12:31:48.898Z,13.42
2023-03-13T12:34:21.451Z,13.45
2023-03-13T12:36:53.077Z,13.45
2023-03-13T12:39:27.207Z,13.46
2023-03-13T12:42:10.415Z,13.57
2023-03-13T12:44:38.048Z,13.66
2023-03-13T12:47:10.647Z,13.61
2023-03-13T12:50:02.248Z,13.70
2023-03-13T12:52:57.552Z,13.66
2023-03-13T12:55:34.936Z,13.74
2023-03-13T12:58:14.968Z,13.82
2023-03-13T13:00:43.966Z,13.99
2023-03-13T13:03:25.377Z,14.25
2023-03-13T13:06:04.320Z,14.62
2023-03-13T13:08:35.124Z,14.89
2023-03-13T13:11:43.784Z,15.22
2023-03-13T13:14:59.298Z,15.59
2023-03-13T13:18:11.442Z,15.91
2023-03-13T13:20:58.121Z,16.19
2023-03-13T13:23:37.413Z,16.30
2023-03-13T13:26:48.225Z,16.42
2023-03-13T13:29:55.375Z,16.40
2023-03-13T13:32:40.936Z,16.39
2023-03-13T13:35:31.925Z,16.54
2023-03-13T13:38:22.273Z,16.58
2023-03-13T13:41:01.802Z,16.68
2023-03-13T13:43:32.468Z,16.84
2023-03-13T13:46:03.320Z,17.05
2023-03-13T13:48:36.479Z,17.16
2023-03-13T13:51:34.370Z,17.18
2023-03-13T13:54:03.071Z,17.42
2023-03-13T13:56:49.445Z,17.65
2023-03-13T13:59:40.820Z,17.92
2023-03-13T14:02:18.238Z,17.99
2023-03-13T14:04:50.217Z,18.00
2023-03-13T14:07:20.052Z,18.26
2023-03-13T14:09:53.885Z,18.40
2023-03-13T14:12:31.493Z,18.43
2023-03-13T14:15:08.532Z,18.51
2023-03-13T14:17:39.980Z,18.53
2023-03-13T14:20:18.821Z,18.60
2023-03-13T14:22:46.996Z,18.54
2023-03-13T14:25:14.626Z,18.63
2023-03-13T14:27:46.353Z,18.62
2023-03-13T14:30:16.586Z,18.52
2023-03-13T14:32:44.243Z,18.36
2023-03-13T14:35:16.516Z,18.28
2023-03-13T14:37:45.484Z,18.07
2023-03-13T14:40:27.616Z,18.02
2023-03-13T14:42:58.264Z,17.90
2023-03-13T14:45:29.303Z,17.68
2023-03-13T14:47:57.453Z,17.59
2023-03-13T14:50:26.100Z,17.39
2023-03-13T14:52:55.910Z,17.28
2023-03-13T14:55:32.821Z,17.20
2023-03-13T14:58:04.978Z,17.07
2023-03-13T15:00:36.261Z,16.95
2023-03-13T15:03:25.534Z,16.66
2023-03-13T15:06:22.688Z,15.41
2023-03-13T15:08:52.305Z,14.41
2023-03-13T15:11:27.596Z,14.38
2023-03-13T15:13:57.088Z,14.02
2023-03-13T15:16:25.582Z,13.95
2023-03-13T15:18:54.006Z,13.63
2023-03-13T15:21:27.047Z,13.72
2023-03-13T15:23:55.649Z,13.55
2023-03-13T15:26:24.204Z,13.39
2023-03-13T15:28:51.925Z,13.04
2023-03-13T15:31:21.749Z,12.94
2023-03-13T15:33:49.849Z,12.79
2023-03-13T15:36:17.508Z,12.61
2023-03-13T15:38:45.125Z,12.70
2023-03-13T15:41:12.661Z,12.66
2023-03-13T15:43:40.195Z,12.63
2023-03-13T15:46:10.990Z,12.57
2023-03-13T15:48:41.344Z,12.44
2023-03-13T15:51:11.714Z,12.53
2023-03-13T15:53:39.358Z,12.48
2023-03-13T15:56:14.350Z,12.40
2023-03-13T15:58:41.894Z,12.56
2023-03-13T16:01:11.140Z,12.37
2023-03-13T16:03:40.734Z,12.19
2023-03-13T16:06:16.262Z,12.31
2023-03-13T16:08:44.105Z,12.20
2023-03-13T16:11:14.497Z,12.17
2023-03-13T16:13:42.641Z,12.17
2023-03-13T16:16:20.141Z,12.27
2023-03-13T16:18:49.851Z,12.26
2023-03-13T16:21:20.622Z,12.28
2023-03-13T16:23:48.402Z,12.29
2023-03-13T16:26:18.043Z,12.25
2023-03-13T16:28:45.877Z,12.17
2023-03-13T16:31:18.205Z,12.15
2023-03-13T16:33:47.164Z,12.22
2023-03-13T16:36:17.514Z,12.20
2023-03-13T16:38:45.156Z,12.22
2023-03-13T16:41:16.335Z,12.17
2023-03-13T16:43:44.151Z,12.24
2023-03-13T16:46:17.161Z,12.35
2023-03-13T16:48:45.300Z,12.28
2023-03-13T16:51:19.154Z,12.32
2023-03-13T16:53:47.726Z,12.39
2023-03-13T16:56:20.038Z,12.36
2023-03-13T16:58:48.122Z,12.48
2023-03-13T17:01:16.697Z,12.44
2023-03-13T17:03:44.424Z,12.42
2023-03-13T17:06:16.659Z,12.33
2023-03-13T17:08:45.697Z,12.37
2023-03-13T17:11:15.970Z,12.33
2023-03-13T17:13:45.829Z,12.33
2023-03-13T17:16:16.112Z,12.35
2023-03-13T17:18:45.185Z,12.20
2023-03-13T17:21:14.555Z,12.31
2023-03-13T17:23:42.243Z,12.27
2023-03-13T17:26:17.559Z,12.32
2023-03-13T17:28:46.120Z,12.33
2023-03-13T17:31:14.015Z,12.26
2023-03-13T17:33:41.751Z,12.16
2023-03-13T17:36:20.712Z,12.11
2023-03-13T17:38:49.198Z,12.10
2023-03-13T17:41:19.747Z,12.14
2023-03-13T17:43:47.601Z,12.12
2023-03-13T17:46:17.619Z,12.10
2023-03-13T17:48:45.785Z,11.99
2023-03-13T17:51:19.152Z,12.09
2023-03-13T17:53:47.099Z,12.07
2023-03-13T17:56:16.560Z,12.10
2023-03-13T17:58:46.296Z,12.05
2023-03-13T18:01:15.634Z,12.07
2023-03-13T18:03:43.435Z,12.16
2023-03-13T18:06:20.170Z,12.11
2023-03-13T18:08:48.890Z,12.17
2023-03-13T18:11:17.427Z,12.03
2023-03-13T18:13:46.914Z,12.02
2023-03-13T18:16:17.801Z,12.00
2023-03-13T18:18:45.604Z,11.98
2023-03-13T18:21:13.211Z,11.95
2023-03-13T18:23:40.796Z,11.87
2023-03-13T18:26:23.797Z,11.88
2023-03-13T18:28:53.416Z,11.95
2023-03-13T18:31:21.053Z,11.93
2023-03-13T18:33:48.700Z,11.95
2023-03-13T18:36:18.271Z,11.93
2023-03-13T18:38:46.218Z,11.96
2023-03-13T18:41:15.385Z,11.99
2023-03-13T18:43:43.546Z,12.03
2023-03-13T18:46:16.740Z,11.99
2023-03-13T18:48:44.302Z,11.88
2023-03-13T18:51:14.698Z,11.78
2023-03-13T18:53:42.867Z,11.76
2023-03-13T18:56:17.344Z,11.74
2023-03-13T18:58:45.411Z,11.73
2023-03-13T19:01:15.940Z,11.73
2023-03-13T19:03:44.110Z,11.71
2023-03-13T19:06:18.953Z,11.72
2023-03-13T19:08:47.263Z,11.57
2023-03-13T19:11:15.383Z,11.66
2023-03-13T19:13:42.938Z,11.65
2023-03-13T19:16:16.277Z,11.58
2023-03-13T19:18:44.252Z,11.52
2023-03-13T19:21:19.140Z,11.45
2023-03-13T19:23:47.001Z,11.32
2023-03-13T19:26:19.566Z,11.36
2023-03-13T19:28:47.076Z,11.22
2023-03-13T19:31:17.635Z,11.25
2023-03-13T19:33:47.488Z,11.20
2023-03-13T19:36:16.079Z,11.15
2023-03-13T19:38:44.284Z,11.08
2023-03-13T19:41:12.897Z,11.00
2023-03-13T19:43:41.062Z,10.92
2023-03-13T19:46:24.294Z,10.95
2023-03-13T19:48:55.439Z,10.94
2023-03-13T19:51:23.535Z,10.83
2023-03-13T19:53:51.194Z,10.82
2023-03-13T19:56:20.912Z,10.75
2023-03-13T19:58:48.928Z,10.68
2023-03-13T20:01:17.921Z,10.76
2023-03-13T20:03:48.224Z,10.77
2023-03-13T20:06:17.946Z,10.75
2023-03-13T20:08:45.742Z,10.71
2023-03-13T20:11:13.643Z,10.72
2023-03-13T20:13:41.346Z,10.55
2023-03-13T20:16:10.787Z,10.68
2023-03-13T20:18:38.639Z,10.59
2023-03-13T20:21:07.870Z,10.56
2023-03-13T20:23:35.397Z,10.57
2023-03-13T20:26:04.818Z,10.60
2023-03-13T20:28:32.362Z,10.47
2023-03-13T20:30:59.951Z,10.50
2023-03-13T20:33:27.614Z,10.47
2023-03-13T20:35:57.921Z,10.40
2023-03-13T20:38:26.999Z,10.33
2023-03-13T20:40:55.411Z,10.29
2023-03-13T20:43:23.486Z,10.26
2023-03-13T20:45:51.075Z,10.33
2023-03-13T20:48:19.000Z,10.34
2023-03-13T20:50:46.654Z,10.22
2023-03-13T20:53:15.002Z,10.24
2023-03-13T20:55:43.985Z,10.22
2023-03-13T20:58:11.683Z,10.12
2023-03-13T21:00:39.436Z,10.23
2023-03-13T21:03:07.014Z,10.16
2023-03-13T21:05:34.593Z,10.11
2023-03-13T21:08:02.207Z,10.00
2023-03-13T21:10:29.748Z,10.07
2023-03-13T21:12:58.631Z,9.94
2023-03-13T21:15:26.139Z,10.03
2023-03-13T21:17:53.797Z,9.98
2023-03-13T21:20:21.410Z,9.87
2023-03-13T21:22:49.107Z,9.85
2023-03-13T21:25:17.127Z,9.83
2023-03-13T21:27:44.733Z,9.81
2023-03-13T21:30:17.463Z,9.87
2023-03-13T21:32:45.570Z,9.94
2023-03-13T21:35:13.844Z,9.88
2023-03-13T21:37:42.698Z,9.82
2023-03-13T21:40:11.573Z,9.76
2023-03-13T21:42:39.197Z,9.73
2023-03-13T21:45:08.256Z,9.78
2023-03-13T21:47:37.530Z,9.80
2023-03-13T21:50:07.306Z,9.82
2023-03-13T21:52:40.567Z,9.80
2023-03-13T21:55:09.899Z,9.84
2023-03-13T21:57:37.471Z,9.84
2023-03-13T22:00:08.122Z,9.91
2023-03-13T22:02:37.293Z,9.94
2023-03-13T22:05:05.791Z,9.92
2023-03-13T22:07:33.311Z,9.84
2023-03-13T22:10:00.942Z,9.80
2023-03-13T22:12:28.900Z,9.83
2023-03-13T22:14:57.839Z,9.88
2023-03-13T22:17:25.452Z,9.89
2023-03-13T22:19:54.405Z,9.92
2023-03-13T22:22:22.057Z,9.84
2023-03-13T22:24:50.085Z,9.95
2023-03-13T22:27:19.335Z,9.91
2023-03-13T22:29:47.619Z,9.86
2023-03-13T22:32:16.227Z,9.89
2023-03-13T22:34:46.974Z,9.97
2023-03-13T22:37:16.131Z,9.90
2023-03-13T22:39:43.694Z,9.82
2023-03-13T22:42:11.478Z,9.86
2023-03-13T22:44:39.054Z,9.74
2023-03-13T22:47:06.620Z,9.80
2023-03-13T22:49:34.230Z,9.83
2023-03-13T22:52:02.614Z,9.78
2023-03-13T22:54:31.817Z,9.80
2023-03-13T22:56:59.389Z,9.79
2023-03-13T22:59:27.870Z,9.67
2023-03-13T23:01:55.991Z,9.75
2023-03-13T23:04:24.281Z,9.77
2023-03-13T23:06:55.270Z,9.79
2023-03-13T23:09:23.134Z,9.71
2023-03-13T23:11:52.589Z,9.77
2023-03-13T23:14:20.416Z,9.76
2023-03-13T23:16:50.861Z,9.67
2023-03-13T23:19:18.606Z,9.68
2023-03-13T23:21:46.230Z,9.66
2023-03-13T23:24:13.890Z,9.62
2023-03-13T23:26:41.444Z,9.67
2023-03-13T23:29:10.468Z,9.64
2023-03-13T23:31:43.644Z,9.63
2023-03-13T23:34:21.567Z,9.60
2023-03-13T23:36:49.842Z,9.55
2023-03-13T23:39:17.624Z,9.66
2023-03-13T23:41:47.863Z,9.62
2023-03-13T23:44:22.137Z,9.62
2023-03-13T23:46:50.213Z,9.63
2023-03-13T23:49:23.426Z,9.55
2023-03-13T23:51:51.461Z,9.46
2023-03-13T23:54:19.147Z,9.59
2023-03-13T23:56:46.737Z,9.58
2023-03-13T23:59:14.277Z,9.57
